sensor_id;sensor_type;location;lat;lon;timestamp;temperature;humidity
1614;DHT22;800;48.824;9.346;2023-02-24T00:01:36;15.70;65.00
1614;DHT22;800;48.824;9.346;2023-02-24T00:04:04;15.70;65.10
1614;DHT22;800;48.824;9.346;2023-02-24T00:06:35;15.80;65.20
1614;DHT22;800;48.824;9.346;2023-02-24T00:09:16;15.80;65.10
1614;DHT22;800;48.824;9.346;2023-02-24T00:11:48;15.80;65.10
1614;DHT22;800;48.824;9.346;2023-02-24T00:14:16;15.70;65.10
1614;DHT22;800;48.824;9.346;2023-02-24T00:16:44;15.70;65.40
1614;DHT22;800;48.824;9.346;2023-02-24T00:19:12;15.70;65.40
1614;DHT22;800;48.824;9.346;2023-02-24T00:21:38;15.70;65.30
1614;DHT22;800;48.824;9.346;2023-02-24T00:24:05;15.70;65.20
1614;DHT22;800;48.824;9.346;2023-02-24T00:26:31;15.70;65.30
1614;DHT22;800;48.824;9.346;2023-02-24T00:28:57;15.70;65.30
1614;DHT22;800;48.824;9.346;2023-02-24T00:31:25;15.70;65.40
1614;DHT22;800;48.824;9.346;2023-02-24T00:33:56;15.70;65.40
1614;DHT22;800;48.824;9.346;2023-02-24T00:36:22;15.70;65.40
1614;DHT22;800;48.824;9.346;2023-02-24T00:38:53;15.70;65.30
1614;DHT22;800;48.824;9.346;2023-02-24T00:41:25;15.70;65.10
1614;DHT22;800;48.824;9.346;2023-02-24T00:43:54;15.80;65.10
1614;DHT22;800;48.824;9.346;2023-02-24T00:46:22;15.70;64.80
1614;DHT22;800;48.824;9.346;2023-02-24T00:48:51;15.70;64.90
1614;DHT22;800;48.824;9.346;2023-02-24T00:51:22;15.70;65.10
1614;DHT22;800;48.824;9.346;2023-02-24T00:53:52;15.70;65.30
1614;DHT22;800;48.824;9.346;2023-02-24T00:56:28;15.70;65.30
1614;DHT22;800;48.824;9.346;2023-02-24T00:58:55;15.70;65.40
1614;DHT22;800;48.824;9.346;2023-02-24T01:01:24;15.70;65.30
1614;DHT22;800;48.824;9.346;2023-02-24T01:03:52;15.70;65.30
1614;DHT22;800;48.824;9.346;2023-02-24T01:06:22;15.70;65.30
1614;DHT22;800;48.824;9.346;2023-02-24T01:08:50;15.70;65.50
1614;DHT22;800;48.824;9.346;2023-02-24T01:11:18;15.70;65.40
1614;DHT22;800;48.824;9.346;2023-02-24T01:14:08;15.70;65.30
1614;DHT22;800;48.824;9.346;2023-02-24T01:16:34;15.70;65.20
1614;DHT22;800;48.824;9.346;2023-02-24T01:19:01;15.70;65.10
1614;DHT22;800;48.824;9.346;2023-02-24T01:21:27;15.70;65.30
1614;DHT22;800;48.824;9.346;2023-02-24T01:23:53;15.70;65.30
1614;DHT22;800;48.824;9.346;2023-02-24T01:26:19;15.70;65.10
1614;DHT22;800;48.824;9.346;2023-02-24T01:28:45;15.70;65.10
1614;DHT22;800;48.824;9.346;2023-02-24T01:31:11;15.60;65.40
1614;DHT22;800;48.824;9.346;2023-02-24T01:33:37;15.60;65.40
1614;DHT22;800;48.824;9.346;2023-02-24T01:36:21;15.60;65.40
1614;DHT22;800;48.824;9.346;2023-02-24T01:38:47;15.50;65.70
1614;DHT22;800;48.824;9.346;2023-02-24T01:41:20;15.50;65.80
1614;DHT22;800;48.824;9.346;2023-02-24T01:44:01;15.50;65.80
1614;DHT22;800;48.824;9.346;2023-02-24T01:46:28;15.60;65.70
1614;DHT22;800;48.824;9.346;2023-02-24T01:49:00;15.50;65.00
1614;DHT22;800;48.824;9.346;2023-02-24T01:51:30;15.50;65.50
1614;DHT22;800;48.824;9.346;2023-02-24T01:53:58;15.50;65.50
1614;DHT22;800;48.824;9.346;2023-02-24T01:56:24;15.50;65.60
1614;DHT22;800;48.824;9.346;2023-02-24T01:58:49;15.50;65.70
1614;DHT22;800;48.824;9.346;2023-02-24T02:01:16;15.40;65.90
1614;DHT22;800;48.824;9.346;2023-02-24T02:03:44;15.40;65.80
1614;DHT22;800;48.824;9.346;2023-02-24T02:06:12;15.50;65.70
1614;DHT22;800;48.824;9.346;2023-02-24T02:08:41;15.40;65.60
1614;DHT22;800;48.824;9.346;2023-02-24T02:11:10;15.40;65.50
1614;DHT22;800;48.824;9.346;2023-02-24T02:13:40;15.30;65.70
1614;DHT22;800;48.824;9.346;2023-02-24T02:19:05;15.20;65.90
1614;DHT22;800;48.824;9.346;2023-02-24T02:24:23;15.20;66.40
1614;DHT22;800;48.824;9.346;2023-02-24T02:29:26;15.30;66.20
1614;DHT22;800;48.824;9.346;2023-02-24T02:32:35;15.30;66.30
1614;DHT22;800;48.824;9.346;2023-02-24T02:35:11;15.30;66.20
1614;DHT22;800;48.824;9.346;2023-02-24T02:37:44;15.20;66.40
1614;DHT22;800;48.824;9.346;2023-02-24T02:40:20;15.20;66.20
1614;DHT22;800;48.824;9.346;2023-02-24T02:43:00;15.30;66.40
1614;DHT22;800;48.824;9.346;2023-02-24T02:48:07;15.30;65.90
1614;DHT22;800;48.824;9.346;2023-02-24T02:53:14;15.40;65.60
1614;DHT22;800;48.824;9.346;2023-02-24T02:55:48;15.40;65.50
1614;DHT22;800;48.824;9.346;2023-02-24T02:58:21;15.40;65.70
1614;DHT22;800;48.824;9.346;2023-02-24T03:00:52;15.40;65.70
1614;DHT22;800;48.824;9.346;2023-02-24T03:03:35;15.40;65.50
1614;DHT22;800;48.824;9.346;2023-02-24T03:06:05;15.40;65.50
1614;DHT22;800;48.824;9.346;2023-02-24T03:08:35;15.40;65.40
1614;DHT22;800;48.824;9.346;2023-02-24T03:11:03;15.40;65.30
1614;DHT22;800;48.824;9.346;2023-02-24T03:13:35;15.40;65.20
1614;DHT22;800;48.824;9.346;2023-02-24T03:16:03;15.40;65.00
1614;DHT22;800;48.824;9.346;2023-02-24T03:18:32;15.40;64.90
1614;DHT22;800;48.824;9.346;2023-02-24T03:21:07;15.40;64.80
1614;DHT22;800;48.824;9.346;2023-02-24T03:23:44;15.40;64.70
1614;DHT22;800;48.824;9.346;2023-02-24T03:29:52;15.30;64.50
1614;DHT22;800;48.824;9.346;2023-02-24T03:32:36;15.30;64.60
1614;DHT22;800;48.824;9.346;2023-02-24T03:35:28;15.30;64.80
1614;DHT22;800;48.824;9.346;2023-02-24T03:37:57;15.30;64.90
1614;DHT22;800;48.824;9.346;2023-02-24T03:40:24;15.30;64.90
1614;DHT22;800;48.824;9.346;2023-02-24T03:43:00;15.30;64.90
1614;DHT22;800;48.824;9.346;2023-02-24T03:45:33;15.30;65.10
1614;DHT22;800;48.824;9.346;2023-02-24T03:48:00;15.20;65.10
1614;DHT22;800;48.824;9.346;2023-02-24T03:50:27;15.20;65.20
1614;DHT22;800;48.824;9.346;2023-02-24T03:53:15;15.20;65.10
1614;DHT22;800;48.824;9.346;2023-02-24T04:06:18;15.20;65.20
1614;DHT22;800;48.824;9.346;2023-02-24T04:09:08;15.20;65.10
1614;DHT22;800;48.824;9.346;2023-02-24T04:11:45;15.20;65.40
1614;DHT22;800;48.824;9.346;2023-02-24T04:14:18;15.20;65.50
1614;DHT22;800;48.824;9.346;2023-02-24T04:17:08;15.10;65.50
1614;DHT22;800;48.824;9.346;2023-02-24T04:19:39;15.10;65.50
1614;DHT22;800;48.824;9.346;2023-02-24T04:22:09;15.10;65.50
1614;DHT22;800;48.824;9.346;2023-02-24T04:24:37;15.10;65.60
1614;DHT22;800;48.824;9.346;2023-02-24T04:27:05;15.10;65.70
1614;DHT22;800;48.824;9.346;2023-02-24T04:29:39;15.00;65.70
1614;DHT22;800;48.824;9.346;2023-02-24T04:32:12;15.00;65.80
1614;DHT22;800;48.824;9.346;2023-02-24T04:34:39;15.00;65.80
1614;DHT22;800;48.824;9.346;2023-02-24T04:37:05;15.00;65.80
1614;DHT22;800;48.824;9.346;2023-02-24T04:39:31;15.00;66.00
1614;DHT22;800;48.824;9.346;2023-02-24T04:41:58;14.90;66.30
1614;DHT22;800;48.824;9.346;2023-02-24T04:44:26;15.00;66.40
1614;DHT22;800;48.824;9.346;2023-02-24T04:46:52;15.00;66.30
1614;DHT22;800;48.824;9.346;2023-02-24T04:49:18;15.00;66.20
1614;DHT22;800;48.824;9.346;2023-02-24T04:51:45;15.00;66.10
1614;DHT22;800;48.824;9.346;2023-02-24T04:54:13;15.00;65.90
1614;DHT22;800;48.824;9.346;2023-02-24T04:56:42;15.00;65.90
1614;DHT22;800;48.824;9.346;2023-02-24T04:59:09;15.00;65.80
1614;DHT22;800;48.824;9.346;2023-02-24T05:01:36;15.00;65.70
1614;DHT22;800;48.824;9.346;2023-02-24T05:04:06;15.00;65.60
1614;DHT22;800;48.824;9.346;2023-02-24T05:06:32;14.90;65.90
1614;DHT22;800;48.824;9.346;2023-02-24T05:08:57;14.90;66.00
1614;DHT22;800;48.824;9.346;2023-02-24T05:11:26;15.00;65.80
1614;DHT22;800;48.824;9.346;2023-02-24T05:13:52;15.00;65.60
1614;DHT22;800;48.824;9.346;2023-02-24T05:16:17;15.00;65.40
1614;DHT22;800;48.824;9.346;2023-02-24T05:18:44;15.00;65.60
1614;DHT22;800;48.824;9.346;2023-02-24T05:21:13;15.00;65.60
1614;DHT22;800;48.824;9.346;2023-02-24T05:23:58;15.00;65.50
1614;DHT22;800;48.824;9.346;2023-02-24T05:26:24;15.00;65.30
1614;DHT22;800;48.824;9.346;2023-02-24T05:28:51;15.00;65.30
1614;DHT22;800;48.824;9.346;2023-02-24T05:31:24;15.00;65.30
1614;DHT22;800;48.824;9.346;2023-02-24T05:33:53;15.00;65.30
1614;DHT22;800;48.824;9.346;2023-02-24T05:36:20;15.00;65.40
1614;DHT22;800;48.824;9.346;2023-02-24T05:38:47;15.00;65.20
1614;DHT22;800;48.824;9.346;2023-02-24T05:41:15;15.00;65.20
1614;DHT22;800;48.824;9.346;2023-02-24T05:43:49;15.00;65.20
1614;DHT22;800;48.824;9.346;2023-02-24T05:46:24;15.00;65.10
1614;DHT22;800;48.824;9.346;2023-02-24T05:48:59;15.00;65.10
1614;DHT22;800;48.824;9.346;2023-02-24T05:51:30;15.00;65.00
1614;DHT22;800;48.824;9.346;2023-02-24T05:54:07;15.00;65.30
1614;DHT22;800;48.824;9.346;2023-02-24T05:56:35;15.00;65.00
1614;DHT22;800;48.824;9.346;2023-02-24T05:59:03;15.00;65.00
1614;DHT22;800;48.824;9.346;2023-02-24T06:01:34;15.00;64.90
1614;DHT22;800;48.824;9.346;2023-02-24T06:04:02;15.00;65.00
1614;DHT22;800;48.824;9.346;2023-02-24T06:06:35;15.00;65.00
1614;DHT22;800;48.824;9.346;2023-02-24T06:09:12;14.90;64.90
1614;DHT22;800;48.824;9.346;2023-02-24T06:11:40;14.80;65.30
1614;DHT22;800;48.824;9.346;2023-02-24T06:14:07;14.90;65.10
1614;DHT22;800;48.824;9.346;2023-02-24T06:16:34;14.90;64.90
1614;DHT22;800;48.824;9.346;2023-02-24T06:19:00;14.90;64.90
1614;DHT22;800;48.824;9.346;2023-02-24T06:21:26;14.90;64.70
1614;DHT22;800;48.824;9.346;2023-02-24T06:23:55;14.90;64.70
1614;DHT22;800;48.824;9.346;2023-02-24T06:26:21;14.90;64.50
1614;DHT22;800;48.824;9.346;2023-02-24T06:28:47;14.90;64.50
1614;DHT22;800;48.824;9.346;2023-02-24T06:31:16;14.90;64.40
1614;DHT22;800;48.824;9.346;2023-02-24T06:33:42;14.90;64.40
1614;DHT22;800;48.824;9.346;2023-02-24T06:36:07;14.90;64.60
1614;DHT22;800;48.824;9.346;2023-02-24T06:38:35;14.80;64.70
1614;DHT22;800;48.824;9.346;2023-02-24T06:41:02;14.80;64.80
1614;DHT22;800;48.824;9.346;2023-02-24T06:43:31;14.80;64.80
1614;DHT22;800;48.824;9.346;2023-02-24T06:45:57;14.80;64.80
1614;DHT22;800;48.824;9.346;2023-02-24T06:48:23;14.80;65.00
1614;DHT22;800;48.824;9.346;2023-02-24T06:50:49;14.80;64.80
1614;DHT22;800;48.824;9.346;2023-02-24T06:53:16;14.80;64.90
1614;DHT22;800;48.824;9.346;2023-02-24T06:55:46;14.70;64.80
1614;DHT22;800;48.824;9.346;2023-02-24T06:58:18;14.70;65.60
1614;DHT22;800;48.824;9.346;2023-02-24T07:00:45;14.70;65.00
1614;DHT22;800;48.824;9.346;2023-02-24T07:03:22;14.80;64.80
1614;DHT22;800;48.824;9.346;2023-02-24T07:05:53;14.80;64.70
1614;DHT22;800;48.824;9.346;2023-02-24T07:08:35;14.80;64.50
1614;DHT22;800;48.824;9.346;2023-02-24T07:11:01;14.80;64.50
1614;DHT22;800;48.824;9.346;2023-02-24T07:13:31;14.90;64.70
1614;DHT22;800;48.824;9.346;2023-02-24T07:15:59;14.90;64.70
1614;DHT22;800;48.824;9.346;2023-02-24T07:18:35;14.80;64.70
1614;DHT22;800;48.824;9.346;2023-02-24T07:21:02;14.80;64.70
1614;DHT22;800;48.824;9.346;2023-02-24T07:23:37;14.90;64.80
1614;DHT22;800;48.824;9.346;2023-02-24T07:26:17;14.80;64.80
1614;DHT22;800;48.824;9.346;2023-02-24T07:28:45;14.80;64.80
1614;DHT22;800;48.824;9.346;2023-02-24T07:31:13;14.80;64.80
1614;DHT22;800;48.824;9.346;2023-02-24T07:33:43;14.80;64.80
1614;DHT22;800;48.824;9.346;2023-02-24T07:36:11;14.80;65.40
1614;DHT22;800;48.824;9.346;2023-02-24T07:38:40;14.90;64.60
1614;DHT22;800;48.824;9.346;2023-02-24T07:41:07;14.90;64.60
1614;DHT22;800;48.824;9.346;2023-02-24T07:43:36;14.80;64.50
1614;DHT22;800;48.824;9.346;2023-02-24T07:46:10;14.80;64.50
1614;DHT22;800;48.824;9.346;2023-02-24T07:48:37;14.80;64.60
1614;DHT22;800;48.824;9.346;2023-02-24T07:51:14;14.80;64.60
1614;DHT22;800;48.824;9.346;2023-02-24T07:53:41;14.80;64.50
1614;DHT22;800;48.824;9.346;2023-02-24T07:56:12;14.80;64.50
1614;DHT22;800;48.824;9.346;2023-02-24T07:58:40;14.80;64.30
1614;DHT22;800;48.824;9.346;2023-02-24T08:01:10;14.80;64.40
1614;DHT22;800;48.824;9.346;2023-02-24T08:03:47;14.70;64.10
1614;DHT22;800;48.824;9.346;2023-02-24T08:06:14;14.60;64.80
1614;DHT22;800;48.824;9.346;2023-02-24T08:08:43;14.70;64.10
1614;DHT22;800;48.824;9.346;2023-02-24T08:11:30;14.70;63.90
1614;DHT22;800;48.824;9.346;2023-02-24T08:14:07;14.70;63.80
1614;DHT22;800;48.824;9.346;2023-02-24T08:16:54;14.70;63.70
1614;DHT22;800;48.824;9.346;2023-02-24T08:19:25;14.80;63.50
1614;DHT22;800;48.824;9.346;2023-02-24T08:21:54;14.80;63.60
1614;DHT22;800;48.824;9.346;2023-02-24T08:24:22;14.80;63.50
1614;DHT22;800;48.824;9.346;2023-02-24T08:26:50;14.80;63.40
1614;DHT22;800;48.824;9.346;2023-02-24T08:29:32;14.90;63.50
1614;DHT22;800;48.824;9.346;2023-02-24T08:32:05;14.80;63.50
1614;DHT22;800;48.824;9.346;2023-02-24T08:34:33;14.90;63.60
1614;DHT22;800;48.824;9.346;2023-02-24T08:36:59;14.90;63.30
1614;DHT22;800;48.824;9.346;2023-02-24T08:39:27;14.90;63.20
1614;DHT22;800;48.824;9.346;2023-02-24T08:41:56;14.90;63.20
1614;DHT22;800;48.824;9.346;2023-02-24T08:44:22;14.80;63.40
1614;DHT22;800;48.824;9.346;2023-02-24T08:46:48;14.90;63.30
1614;DHT22;800;48.824;9.346;2023-02-24T08:49:16;14.90;63.30
1614;DHT22;800;48.824;9.346;2023-02-24T08:51:45;14.90;63.40
1614;DHT22;800;48.824;9.346;2023-02-24T08:54:14;14.90;63.20
1614;DHT22;800;48.824;9.346;2023-02-24T08:56:43;14.90;63.30
1614;DHT22;800;48.824;9.346;2023-02-24T08:59:15;14.90;63.40
1614;DHT22;800;48.824;9.346;2023-02-24T09:01:57;14.90;64.30
1614;DHT22;800;48.824;9.346;2023-02-24T09:04:47;14.90;64.50
1614;DHT22;800;48.824;9.346;2023-02-24T09:07:34;14.80;63.90
1614;DHT22;800;48.824;9.346;2023-02-24T09:10:02;14.70;64.40
1614;DHT22;800;48.824;9.346;2023-02-24T09:12:29;14.80;64.40
1614;DHT22;800;48.824;9.346;2023-02-24T09:15:05;14.90;64.00
1614;DHT22;800;48.824;9.346;2023-02-24T09:17:32;15.00;64.10
1614;DHT22;800;48.824;9.346;2023-02-24T09:20:21;15.10;63.90
1614;DHT22;800;48.824;9.346;2023-02-24T09:22:50;15.10;63.80
1614;DHT22;800;48.824;9.346;2023-02-24T09:25:23;15.10;63.50
1614;DHT22;800;48.824;9.346;2023-02-24T09:30:26;15.20;63.20
1614;DHT22;800;48.824;9.346;2023-02-24T09:33:16;15.20;63.20
1614;DHT22;800;48.824;9.346;2023-02-24T09:35:51;15.20;63.20
1614;DHT22;800;48.824;9.346;2023-02-24T09:38:21;15.20;63.90
1614;DHT22;800;48.824;9.346;2023-02-24T09:41:20;15.30;63.20
1614;DHT22;800;48.824;9.346;2023-02-24T09:46:32;15.20;62.70
1614;DHT22;800;48.824;9.346;2023-02-24T09:49:07;15.20;62.40
1614;DHT22;800;48.824;9.346;2023-02-24T09:51:37;15.20;62.10
1614;DHT22;800;48.824;9.346;2023-02-24T09:54:14;15.20;62.00
1614;DHT22;800;48.824;9.346;2023-02-24T09:56:50;15.20;62.10
1614;DHT22;800;48.824;9.346;2023-02-24T09:59:29;15.30;62.40
1614;DHT22;800;48.824;9.346;2023-02-24T10:02:22;15.20;62.90
1614;DHT22;800;48.824;9.346;2023-02-24T10:07:40;15.30;63.10
1614;DHT22;800;48.824;9.346;2023-02-24T10:10:19;15.40;63.00
1614;DHT22;800;48.824;9.346;2023-02-24T10:13:11;15.50;62.90
1614;DHT22;800;48.824;9.346;2023-02-24T10:15:45;15.50;62.20
1614;DHT22;800;48.824;9.346;2023-02-24T10:20:53;15.60;62.30
1614;DHT22;800;48.824;9.346;2023-02-24T10:23:34;15.60;62.00
1614;DHT22;800;48.824;9.346;2023-02-24T10:26:12;15.60;61.70
1614;DHT22;800;48.824;9.346;2023-02-24T10:32:17;15.60;60.80
1614;DHT22;800;48.824;9.346;2023-02-24T10:34:51;15.70;60.80
1614;DHT22;800;48.824;9.346;2023-02-24T10:37:22;15.70;60.70
1614;DHT22;800;48.824;9.346;2023-02-24T10:39:49;15.60;60.10
1614;DHT22;800;48.824;9.346;2023-02-24T10:42:27;15.70;60.10
1614;DHT22;800;48.824;9.346;2023-02-24T10:47:38;15.70;60.50
1614;DHT22;800;48.824;9.346;2023-02-24T10:53:06;15.70;60.30
1614;DHT22;800;48.824;9.346;2023-02-24T10:55:42;15.80;60.50
1614;DHT22;800;48.824;9.346;2023-02-24T11:01:14;15.90;59.50
1614;DHT22;800;48.824;9.346;2023-02-24T11:03:53;15.60;59.10
1614;DHT22;800;48.824;9.346;2023-02-24T11:06:48;15.50;59.70
1614;DHT22;800;48.824;9.346;2023-02-24T11:09:24;15.30;59.60
1614;DHT22;800;48.824;9.346;2023-02-24T11:12:13;15.30;59.60
1614;DHT22;800;48.824;9.346;2023-02-24T11:15:02;15.10;59.60
1614;DHT22;800;48.824;9.346;2023-02-24T11:22:43;15.40;59.40
1614;DHT22;800;48.824;9.346;2023-02-24T11:25:13;15.40;59.10
1614;DHT22;800;48.824;9.346;2023-02-24T11:27:41;15.50;59.50
1614;DHT22;800;48.824;9.346;2023-02-24T11:33:27;15.70;58.90
1614;DHT22;800;48.824;9.346;2023-02-24T11:36:16;15.70;58.70
1614;DHT22;800;48.824;9.346;2023-02-24T11:38:58;15.70;58.90
1614;DHT22;800;48.824;9.346;2023-02-24T11:41:41;15.60;58.70
1614;DHT22;800;48.824;9.346;2023-02-24T11:44:53;15.60;58.60
1614;DHT22;800;48.824;9.346;2023-02-24T11:47:25;15.60;58.70
1614;DHT22;800;48.824;9.346;2023-02-24T11:50:16;15.60;58.60
1614;DHT22;800;48.824;9.346;2023-02-24T11:52:45;15.60;58.70
1614;DHT22;800;48.824;9.346;2023-02-24T11:55:26;15.60;58.60
1614;DHT22;800;48.824;9.346;2023-02-24T11:57:57;15.60;58.70
1614;DHT22;800;48.824;9.346;2023-02-24T12:00:28;15.50;58.90
1614;DHT22;800;48.824;9.346;2023-02-24T12:05:40;15.30;59.00
1614;DHT22;800;48.824;9.346;2023-02-24T12:10:55;15.30;59.00
1614;DHT22;800;48.824;9.346;2023-02-24T12:14:01;15.40;58.70
1614;DHT22;800;48.824;9.346;2023-02-24T12:16:28;15.50;58.60
1614;DHT22;800;48.824;9.346;2023-02-24T12:19:02;15.60;58.30
1614;DHT22;800;48.824;9.346;2023-02-24T12:21:35;15.70;58.10
1614;DHT22;800;48.824;9.346;2023-02-24T12:24:03;15.80;58.00
1614;DHT22;800;48.824;9.346;2023-02-24T12:26:35;15.80;57.80
1614;DHT22;800;48.824;9.346;2023-02-24T12:34:41;16.00;57.50
1614;DHT22;800;48.824;9.346;2023-02-24T12:45:03;15.90;58.20
1614;DHT22;800;48.824;9.346;2023-02-24T12:50:57;16.20;57.60
1614;DHT22;800;48.824;9.346;2023-02-24T12:53:33;16.30;57.80
1614;DHT22;800;48.824;9.346;2023-02-24T12:56:17;16.40;57.40
1614;DHT22;800;48.824;9.346;2023-02-24T12:58:49;16.30;57.50
1614;DHT22;800;48.824;9.346;2023-02-24T13:04:25;16.50;56.70
1614;DHT22;800;48.824;9.346;2023-02-24T13:10:29;16.70;56.00
1614;DHT22;800;48.824;9.346;2023-02-24T13:15:57;16.80;55.60
1614;DHT22;800;48.824;9.346;2023-02-24T13:18:33;16.80;55.70
1614;DHT22;800;48.824;9.346;2023-02-24T13:21:05;16.60;55.60
1614;DHT22;800;48.824;9.346;2023-02-24T13:23:32;16.60;55.80
1614;DHT22;800;48.824;9.346;2023-02-24T13:25:58;16.60;55.60
1614;DHT22;800;48.824;9.346;2023-02-24T13:28:25;16.60;55.50
1614;DHT22;800;48.824;9.346;2023-02-24T13:31:06;16.60;55.50
1614;DHT22;800;48.824;9.346;2023-02-24T13:33:41;16.60;55.70
1614;DHT22;800;48.824;9.346;2023-02-24T13:38:45;16.50;56.00
1614;DHT22;800;48.824;9.346;2023-02-24T13:41:36;16.30;55.90
1614;DHT22;800;48.824;9.346;2023-02-24T13:49:53;16.20;56.30
1614;DHT22;800;48.824;9.346;2023-02-24T13:52:45;16.10;56.40
1614;DHT22;800;48.824;9.346;2023-02-24T14:01:17;16.30;56.20
1614;DHT22;800;48.824;9.346;2023-02-24T14:04:01;16.30;56.00
1614;DHT22;800;48.824;9.346;2023-02-24T14:06:27;16.40;55.80
1614;DHT22;800;48.824;9.346;2023-02-24T14:09:03;16.40;55.80
1614;DHT22;800;48.824;9.346;2023-02-24T14:11:34;16.50;56.00
1614;DHT22;800;48.824;9.346;2023-02-24T14:14:00;16.50;55.70
1614;DHT22;800;48.824;9.346;2023-02-24T14:16:29;16.50;55.60
1614;DHT22;800;48.824;9.346;2023-02-24T14:18:58;16.40;55.40
1614;DHT22;800;48.824;9.346;2023-02-24T14:21:29;16.30;55.50
1614;DHT22;800;48.824;9.346;2023-02-24T14:24:08;16.20;55.70
1614;DHT22;800;48.824;9.346;2023-02-24T14:26:45;16.30;55.90
1614;DHT22;800;48.824;9.346;2023-02-24T14:29:15;16.20;55.50
1614;DHT22;800;48.824;9.346;2023-02-24T14:31:49;16.30;55.60
1614;DHT22;800;48.824;9.346;2023-02-24T14:34:19;16.40;55.60
1614;DHT22;800;48.824;9.346;2023-02-24T14:36:45;16.40;55.40
1614;DHT22;800;48.824;9.346;2023-02-24T14:39:16;16.30;55.60
1614;DHT22;800;48.824;9.346;2023-02-24T14:41:42;16.30;55.40
1614;DHT22;800;48.824;9.346;2023-02-24T14:44:27;16.10;55.60
1614;DHT22;800;48.824;9.346;2023-02-24T14:46:59;16.00;55.80
1614;DHT22;800;48.824;9.346;2023-02-24T14:49:28;15.90;56.10
1614;DHT22;800;48.824;9.346;2023-02-24T14:54:47;15.90;56.10
1614;DHT22;800;48.824;9.346;2023-02-24T14:57:17;15.80;56.20
1614;DHT22;800;48.824;9.346;2023-02-24T14:59:47;15.70;56.20
1614;DHT22;800;48.824;9.346;2023-02-24T15:02:16;15.80;56.10
1614;DHT22;800;48.824;9.346;2023-02-24T15:04:45;15.60;56.40
1614;DHT22;800;48.824;9.346;2023-02-24T15:07:21;15.60;56.50
1614;DHT22;800;48.824;9.346;2023-02-24T15:09:48;15.60;56.60
1614;DHT22;800;48.824;9.346;2023-02-24T15:12:42;15.70;56.40
1614;DHT22;800;48.824;9.346;2023-02-24T15:15:21;15.70;56.40
1614;DHT22;800;48.824;9.346;2023-02-24T15:17:56;15.50;56.40
1614;DHT22;800;48.824;9.346;2023-02-24T15:22:52;15.60;56.40
1614;DHT22;800;48.824;9.346;2023-02-24T15:25:24;15.70;56.50
1614;DHT22;800;48.824;9.346;2023-02-24T15:27:59;15.60;56.60
1614;DHT22;800;48.824;9.346;2023-02-24T15:33:10;15.60;56.50
1614;DHT22;800;48.824;9.346;2023-02-24T15:35:55;15.60;56.60
1614;DHT22;800;48.824;9.346;2023-02-24T15:38:23;15.60;56.60
1614;DHT22;800;48.824;9.346;2023-02-24T15:40:55;15.60;57.00
1614;DHT22;800;48.824;9.346;2023-02-24T15:46:22;15.70;57.10
1614;DHT22;800;48.824;9.346;2023-02-24T15:48:50;15.60;57.20
1614;DHT22;800;48.824;9.346;2023-02-24T15:51:36;15.70;57.30
1614;DHT22;800;48.824;9.346;2023-02-24T15:54:06;15.70;57.30
1614;DHT22;800;48.824;9.346;2023-02-24T15:56:33;15.70;57.30
1614;DHT22;800;48.824;9.346;2023-02-24T15:59:00;15.50;57.40
1614;DHT22;800;48.824;9.346;2023-02-24T16:01:30;15.40;57.50
1614;DHT22;800;48.824;9.346;2023-02-24T16:03:57;15.30;57.80
1614;DHT22;800;48.824;9.346;2023-02-24T16:06:24;15.10;58.40
1614;DHT22;800;48.824;9.346;2023-02-24T16:08:51;15.20;58.70
1614;DHT22;800;48.824;9.346;2023-02-24T16:11:22;15.20;58.60
1614;DHT22;800;48.824;9.346;2023-02-24T16:13:55;15.40;58.60
1614;DHT22;800;48.824;9.346;2023-02-24T16:16:22;15.50;58.30
1614;DHT22;800;48.824;9.346;2023-02-24T16:18:49;15.40;57.90
1614;DHT22;800;48.824;9.346;2023-02-24T16:21:15;15.40;58.20
1614;DHT22;800;48.824;9.346;2023-02-24T16:23:41;15.30;58.30
1614;DHT22;800;48.824;9.346;2023-02-24T16:26:15;15.40;58.40
1614;DHT22;800;48.824;9.346;2023-02-24T16:28:41;15.30;58.40
1614;DHT22;800;48.824;9.346;2023-02-24T16:31:07;15.30;58.60
1614;DHT22;800;48.824;9.346;2023-02-24T16:33:33;15.20;58.70
1614;DHT22;800;48.824;9.346;2023-02-24T16:36:00;15.10;58.60
1614;DHT22;800;48.824;9.346;2023-02-24T16:38:25;15.20;59.00
1614;DHT22;800;48.824;9.346;2023-02-24T16:40:52;15.10;59.10
1614;DHT22;800;48.824;9.346;2023-02-24T16:43:17;15.20;59.00
1614;DHT22;800;48.824;9.346;2023-02-24T16:45:44;15.30;59.20
1614;DHT22;800;48.824;9.346;2023-02-24T16:48:21;15.30;58.90
1614;DHT22;800;48.824;9.346;2023-02-24T16:50:50;15.40;58.90
1614;DHT22;800;48.824;9.346;2023-02-24T16:53:19;15.30;58.60
1614;DHT22;800;48.824;9.346;2023-02-24T16:55:45;15.40;58.70
1614;DHT22;800;48.824;9.346;2023-02-24T16:58:12;15.40;58.70
1614;DHT22;800;48.824;9.346;2023-02-24T17:00:39;15.40;58.70
1614;DHT22;800;48.824;9.346;2023-02-24T17:03:27;15.50;58.60
1614;DHT22;800;48.824;9.346;2023-02-24T17:05:54;15.50;58.50
1614;DHT22;800;48.824;9.346;2023-02-24T17:08:20;15.50;58.50
1614;DHT22;800;48.824;9.346;2023-02-24T17:10:47;15.50;58.60
1614;DHT22;800;48.824;9.346;2023-02-24T17:13:15;15.40;58.50
1614;DHT22;800;48.824;9.346;2023-02-24T17:15:42;15.20;58.40
1614;DHT22;800;48.824;9.346;2023-02-24T17:18:08;15.00;58.90
1614;DHT22;800;48.824;9.346;2023-02-24T17:20:35;14.60;58.90
1614;DHT22;800;48.824;9.346;2023-02-24T17:23:01;14.50;59.70
1614;DHT22;800;48.824;9.346;2023-02-24T17:25:28;14.40;60.00
1614;DHT22;800;48.824;9.346;2023-02-24T17:27:54;14.50;59.70
1614;DHT22;800;48.824;9.346;2023-02-24T17:30:27;14.20;60.10
1614;DHT22;800;48.824;9.346;2023-02-24T17:32:53;14.10;60.70
1614;DHT22;800;48.824;9.346;2023-02-24T17:35:19;14.20;60.50
1614;DHT22;800;48.824;9.346;2023-02-24T17:37:45;14.20;60.00
1614;DHT22;800;48.824;9.346;2023-02-24T17:40:11;14.00;60.70
1614;DHT22;800;48.824;9.346;2023-02-24T17:42:40;13.90;61.20
1614;DHT22;800;48.824;9.346;2023-02-24T17:45:06;13.90;61.20
1614;DHT22;800;48.824;9.346;2023-02-24T17:47:32;14.10;61.40
1614;DHT22;800;48.824;9.346;2023-02-24T17:49:59;14.10;60.90
1614;DHT22;800;48.824;9.346;2023-02-24T17:52:25;14.10;60.70
1614;DHT22;800;48.824;9.346;2023-02-24T17:54:51;14.20;60.80
1614;DHT22;800;48.824;9.346;2023-02-24T17:57:17;14.20;60.30
1614;DHT22;800;48.824;9.346;2023-02-24T17:59:43;14.40;60.20
1614;DHT22;800;48.824;9.346;2023-02-24T18:02:11;14.30;59.60
1614;DHT22;800;48.824;9.346;2023-02-24T18:04:37;14.30;60.00
1614;DHT22;800;48.824;9.346;2023-02-24T18:07:04;14.40;59.70
1614;DHT22;800;48.824;9.346;2023-02-24T18:09:30;14.50;59.40
1614;DHT22;800;48.824;9.346;2023-02-24T18:11:55;14.30;58.90
1614;DHT22;800;48.824;9.346;2023-02-24T18:14:21;14.20;59.40
1614;DHT22;800;48.824;9.346;2023-02-24T18:16:47;14.10;59.70
1614;DHT22;800;48.824;9.346;2023-02-24T18:19:12;14.10;59.50
1614;DHT22;800;48.824;9.346;2023-02-24T18:21:38;14.20;59.30
1614;DHT22;800;48.824;9.346;2023-02-24T18:24:04;14.10;59.40
1614;DHT22;800;48.824;9.346;2023-02-24T18:26:30;14.30;59.10
1614;DHT22;800;48.824;9.346;2023-02-24T18:28:59;13.80;59.40
1614;DHT22;800;48.824;9.346;2023-02-24T18:31:25;14.00;59.50
1614;DHT22;800;48.824;9.346;2023-02-24T18:33:52;14.20;59.20
1614;DHT22;800;48.824;9.346;2023-02-24T18:36:18;14.00;59.10
1614;DHT22;800;48.824;9.346;2023-02-24T18:38:44;13.90;59.40
1614;DHT22;800;48.824;9.346;2023-02-24T18:41:12;14.00;59.20